Alread, AR

11:01 AM CST on January 30, 2015 (GMT -0600)
Clinton | Change Station
CLOSE
Current Station
Airport
Location: Clinton,
Elevation: 515 ft
Nearby Weather Stations

Elev 515 ft 35.60 °N, 92.45 °W | Updated 26 minutes ago

Clear
Clear
41 °F
Feels Like 38 °F
N
5
Wind Variable Wind from NW

Today
High -- | Low -- °F
--% Chance of Precip.
Yesterday
High -- | Low -- °F
Precip. -- in
7:11 AM 5:35 PM
Waxing Gibbous, 84% visible
Pressure 30.56 in
Visibility 7.0 miles
Clouds Clear
Windchill 38 °F
Dew Point 25 °F
Humidity 53%
Rainfall 0.00 in
Snow Depth Not available.
UV 3 out of 12
Pollen 5.20 out of 12
Air Quality Not available.
Flu Activity Not available.
METAR KCCA 301635Z AUTO 32004KT 7SM CLR 05/M04 A3056 RMK AO2

More Conditions Fewer Conditions

Pressure 30.56 in
Visibility 7.0 miles
Clouds Clear
Windchill 38 °F
Dew Point 25 °F
Humidity 53%
Rainfall 0.00 in
Snow Depth Not available.
UV 3 out of 12
Pollen 5.20 out of 12
Air Quality Not available.
Flu Activity Not available.
METAR KCCA 301635Z AUTO 32004KT 7SM CLR 05/M04 A3056 RMK AO2

More Conditions Fewer Conditions

10-Day Weather Forecast

Almanac

Astronomy

Jan. 30, 2015 Rise Set
Actual Time
Civil Twilight
Nautical Twilight
Astronomical Twilight
Moon
Length of Visible Light
Length of Day
Tomorrow will be .
, % of the Moon is Illuminated

Today's Extremes

State Highs State Lows

Community

WunderPhotos

Upload Photos

1,791,821 photos uploaded!

WunderBlogs® & News

Nearby

Air Quality

  Air Quality AQ Index Pollutant
Not available.

Snow Depth

Station Depth Elevation

Earthquake Activity

City Distance Mag. Time & Date
Minimum magnitude displayed is 2.5.

Coastal Water Temperatures

Place Temperature

Nearby Weather Stations